Jeppesen Weather report generated on Fri May 25 22:07:29 UTC 2018

TAF METAR Weather Report For FVHA FVBU FVFA FVCZ FVKB
ICAOREPORT DATA
FVHA
TAF_FC
FVHA 252200Z 2600/2706 06008KT CAVOK=
FVHA
METAR
FVHA 252100Z 06003KT CAVOK 14/10 Q1024 NOSIG=
FVBU
TAF_FC
FVBU 250400Z 2506/2612 10008KT CAVOK TEMPO 2511/2516 VRB04KT=
FVBU
METAR
FVBU 251500Z 15005KT 120V200 CAVOK 24/06 Q1022 NOSIG=
FVFA
TAF_FC
FVFA 250400Z 2506/2612 VRB03KT CAVOK BECMG 2508/2510 07008KT=
FVFA
METAR
NONE
FVCZ
TAF_FC
NONE
FVCZ
METAR
NONE
FVKB
TAF_FC
NONE
FVKB
METAR
NONE